createdAt,value
2018-09-06T00:01:08.849Z,99942.77
2018-09-06T00:03:37.359Z,99939.90
2018-09-06T00:06:06.069Z,99938.75
2018-09-06T00:08:34.633Z,99936.98
2018-09-06T00:11:03.415Z,99943.08
2018-09-06T00:13:31.913Z,99938.06
2018-09-06T00:16:00.341Z,99938.70
2018-09-06T00:18:28.986Z,99941.14
2018-09-06T00:20:57.487Z,99940.25
2018-09-06T00:23:26.026Z,99929.72
2018-09-06T00:25:54.868Z,99928.44
2018-09-06T00:28:23.356Z,99933.70
2018-09-06T00:30:51.860Z,99937.05
2018-09-06T00:33:20.559Z,99932.02
2018-09-06T00:35:49.112Z,99924.89
2018-09-06T00:38:17.576Z,99929.23
2018-09-06T00:40:46.377Z,99927.19
2018-09-06T00:43:14.900Z,99933.27
2018-09-06T00:45:43.348Z,99923.69
2018-09-06T00:48:11.818Z,99932.83
2018-09-06T00:50:40.858Z,99929.14
2018-09-06T00:53:09.362Z,99929.19
2018-09-06T00:55:38.007Z,99924.67
2018-09-06T00:58:06.458Z,99924.48
2018-09-06T01:00:35.035Z,99924.09
2018-09-06T01:03:03.812Z,99921.88
2018-09-06T01:05:32.387Z,99914.03
2018-09-06T01:08:00.834Z,99913.83
2018-09-06T01:10:29.647Z,99914.12
2018-09-06T01:12:58.147Z,99918.98
2018-09-06T01:15:26.603Z,99916.49
2018-09-06T01:17:55.990Z,99924.73
2018-09-06T01:20:24.471Z,99922.39
2018-09-06T01:22:52.954Z,99925.12
2018-09-06T01:25:22.226Z,99923.92
2018-09-06T01:27:50.640Z,99926.37
2018-09-06T01:30:19.162Z,99935.83
2018-09-06T01:32:47.935Z,99930.77
2018-09-06T01:35:16.459Z,99923.84
2018-09-06T01:37:44.991Z,99926.98
2018-09-06T01:40:13.566Z,99920.83
2018-09-06T01:42:42.014Z,99926.13
2018-09-06T01:45:10.482Z,99924.34
2018-09-06T01:47:38.995Z,99914.12
2018-09-06T01:50:07.443Z,99916.75
2018-09-06T01:52:35.966Z,99910.53
2018-09-06T01:55:04.763Z,99910.05
2018-09-06T01:57:33.314Z,99909.37
2018-09-06T02:00:01.759Z,99905.15
2018-09-06T02:02:30.290Z,99898.03
2018-09-06T02:04:58.738Z,99903.17
2018-09-06T02:07:27.166Z,99897.58
2018-09-06T02:09:56.044Z,99893.73
2018-09-06T02:12:24.562Z,99900.58
2018-09-06T02:14:52.987Z,99905.34
2018-09-06T02:17:21.584Z,99904.64
2018-09-06T02:19:50.046Z,99896.17
2018-09-06T02:22:18.560Z,99897.52
2018-09-06T02:24:47.100Z,99898.45
2018-09-06T02:27:15.594Z,99905.54
2018-09-06T02:29:44.126Z,99896.33
2018-09-06T02:32:12.667Z,99896.66
2018-09-06T02:34:41.208Z,99890.71
2018-09-06T02:37:09.686Z,99892.79
2018-09-06T02:39:38.562Z,99889.47
2018-09-06T02:42:07.118Z,99887.46
2018-09-06T02:44:35.587Z,99885.05
2018-09-06T02:47:04.234Z,99887.46
2018-09-06T02:49:38.105Z,99881.34
2018-09-06T02:52:06.759Z,99886.19
2018-09-06T02:54:35.311Z,99881.59
2018-09-06T02:57:03.902Z,99874.13
2018-09-06T02:59:32.394Z,99881.63
2018-09-06T03:02:01.142Z,99872.30
2018-09-06T03:04:29.690Z,99865.47
2018-09-06T03:06:58.167Z,99869.05
2018-09-06T03:09:26.630Z,99865.88
2018-09-06T03:12:02.736Z,99874.27
2018-09-06T03:14:31.267Z,99872.19
2018-09-06T03:17:00.053Z,99865.67
2018-09-06T03:19:28.718Z,99862.98
2018-09-06T03:21:57.231Z,99865.47
2018-09-06T03:24:25.856Z,99864.02
2018-09-06T03:26:54.337Z,99855.52
2018-09-06T03:29:22.853Z,99859.13
2018-09-06T03:31:51.323Z,99854.20
2018-09-06T03:34:19.839Z,99850.80
2018-09-06T03:36:48.274Z,99846.66
2018-09-06T03:39:16.788Z,99853.42
2018-09-06T03:41:45.530Z,99843.81
2018-09-06T03:44:13.968Z,99840.95
2018-09-06T03:46:42.491Z,99836.91
2018-09-06T03:49:11.027Z,99837.77
2018-09-06T03:51:39.542Z,99836.89
2018-09-06T03:54:08.055Z,99843.70
2018-09-06T03:56:36.707Z,99838.05
2018-09-06T03:59:05.230Z,99843.52
2018-09-06T04:01:33.747Z,99840.54
2018-09-06T04:04:02.267Z,99840.08
2018-09-06T04:06:30.738Z,99843.23
2018-09-06T04:08:59.217Z,99838.23
2018-09-06T04:11:27.874Z,99848.23
2018-09-06T04:13:56.526Z,99853.91
2018-09-06T04:16:25.020Z,99846.86
2018-09-06T04:18:53.563Z,99848.21
2018-09-06T04:21:22.206Z,99857.81
2018-09-06T04:23:50.810Z,99865.19
2018-09-06T04:26:19.411Z,99863.56
2018-09-06T04:28:47.883Z,99866.55
2018-09-06T04:31:16.374Z,99866.05
2018-09-06T04:33:44.866Z,99861.30
2018-09-06T04:36:13.329Z,99858.11
2018-09-06T04:38:41.970Z,99854.16
2018-09-06T04:41:10.720Z,99858.55
2018-09-06T04:43:39.190Z,99853.12
2018-09-06T04:46:07.635Z,99853.60
2018-09-06T04:48:36.702Z,99852.55
2018-09-06T04:51:05.141Z,99857.61
2018-09-06T04:53:33.967Z,99851.67
2018-09-06T04:56:02.840Z,99845.18
2018-09-06T04:58:31.503Z,99847.13
2018-09-06T05:00:59.927Z,99849.06
2018-09-06T05:03:28.547Z,99850.99
2018-09-06T05:05:57.019Z,99851.61
2018-09-06T05:08:25.503Z,99854.44
2018-09-06T05:10:54.038Z,99857.14
2018-09-06T05:13:22.487Z,99857.25
2018-09-06T05:15:50.938Z,99854.37
2018-09-06T05:18:19.451Z,99853.60
2018-09-06T05:20:47.942Z,99857.25
2018-09-06T05:23:16.355Z,99869.32
2018-09-06T05:25:45.038Z,99853.39
2018-09-06T05:28:13.491Z,99859.89
2018-09-06T05:30:41.990Z,99859.20
2018-09-06T05:33:10.615Z,99858.89
2018-09-06T05:35:39.146Z,99856.03
2018-09-06T05:38:07.651Z,99846.94
2018-09-06T05:40:36.411Z,99851.68
2018-09-06T05:43:05.030Z,99854.03
2018-09-06T05:45:33.526Z,99856.72
2018-09-06T05:48:02.126Z,99850.60
2018-09-06T05:50:31.482Z,99854.27
2018-09-06T05:53:01.274Z,99852.59
2018-09-06T05:55:29.760Z,99851.72
2018-09-06T05:57:58.411Z,99856.30
2018-09-06T06:00:32.170Z,99858.13
2018-09-06T06:03:02.747Z,99856.52
2018-09-06T06:05:31.288Z,99853.98
2018-09-06T06:08:11.123Z,99855.39
2018-09-06T06:10:39.847Z,99856.52
2018-09-06T06:13:08.374Z,99856.73
2018-09-06T06:15:37.442Z,99854.05
2018-09-06T06:18:06.055Z,99848.24
2018-09-06T06:20:34.605Z,99847.53
2018-09-06T06:23:03.126Z,99847.47
2018-09-06T06:25:31.695Z,99848.97
2018-09-06T06:28:00.295Z,99845.64
2018-09-06T06:30:28.774Z,99842.38
2018-09-06T06:32:57.411Z,99848.09
2018-09-06T06:35:26.086Z,99851.91
2018-09-06T06:37:54.552Z,99850.67
2018-09-06T06:40:23.509Z,99858.51
2018-09-06T06:42:52.051Z,99856.84
2018-09-06T06:45:20.466Z,99860.34
2018-09-06T06:47:48.950Z,99859.11
2018-09-06T06:50:17.454Z,99856.64
2018-09-06T06:52:45.927Z,99848.22
2018-09-06T06:55:14.698Z,99848.08
2018-09-06T06:57:43.194Z,99856.45
2018-09-06T07:00:11.771Z,99852.98
2018-09-06T07:02:40.472Z,99849.45
2018-09-06T07:05:09.161Z,99846.52
2018-09-06T07:07:37.764Z,99847.55
2018-09-06T07:10:06.590Z,99838.11
2018-09-06T07:12:35.087Z,99843.16
2018-09-06T07:15:03.615Z,99839.03
2018-09-06T07:17:32.371Z,99843.20
2018-09-06T07:20:00.875Z,99838.85
2018-09-06T07:22:29.355Z,99841.80
2018-09-06T07:24:58.154Z,99847.08
2018-09-06T07:27:26.658Z,99843.16
2018-09-06T07:29:55.167Z,99845.40
2018-09-06T07:32:23.707Z,99843.59
2018-09-06T07:34:52.267Z,99844.91
2018-09-06T07:37:20.743Z,99839.75
2018-09-06T07:39:49.238Z,99842.94
2018-09-06T07:42:17.731Z,99836.59
2018-09-06T07:44:46.171Z,99841.73
2018-09-06T07:47:14.800Z,99842.27
2018-09-06T07:49:43.363Z,99839.56
2018-09-06T07:52:11.822Z,99836.38
2018-09-06T07:54:40.346Z,99840.41
2018-09-06T07:57:08.888Z,99844.73
2018-09-06T07:59:37.390Z,99848.81
2018-09-06T08:02:05.848Z,99844.72
2018-09-06T08:04:34.254Z,99844.16
2018-09-06T08:07:02.826Z,99846.21
2018-09-06T08:09:31.394Z,99848.48
2018-09-06T08:11:59.834Z,99850.48
2018-09-06T08:14:28.255Z,99848.13
2018-09-06T08:16:56.843Z,99847.98
2018-09-06T08:19:25.502Z,99849.19
2018-09-06T08:21:53.978Z,99837.69
2018-09-06T08:24:22.689Z,99844.77
2018-09-06T08:26:51.170Z,99834.94
2018-09-06T08:29:19.596Z,99832.30
2018-09-06T08:31:48.394Z,99823.72
2018-09-06T08:34:16.842Z,99832.66
2018-09-06T08:36:45.465Z,99827.16
2018-09-06T08:39:14.235Z,99832.71
2018-09-06T08:41:42.850Z,99824.59
2018-09-06T08:44:11.314Z,99827.81
2018-09-06T08:46:39.970Z,99829.66
2018-09-06T08:49:08.404Z,99829.03
2018-09-06T08:51:36.899Z,99828.36
2018-09-06T08:54:05.614Z,99830.98
2018-09-06T08:56:34.112Z,99827.36
2018-09-06T08:59:02.610Z,99827.09
2018-09-06T09:01:36.328Z,99832.49
2018-09-06T09:04:04.807Z,99826.23
2018-09-06T09:06:33.524Z,99821.17
2018-09-06T09:09:02.093Z,99816.09
2018-09-06T09:11:30.626Z,99822.22
2018-09-06T09:13:59.054Z,99821.41
2018-09-06T09:16:27.612Z,99818.45
2018-09-06T09:18:56.207Z,99815.52
2018-09-06T09:21:25.113Z,99808.09
2018-09-06T09:23:53.863Z,99809.30
2018-09-06T09:26:22.359Z,99808.50
2018-09-06T09:28:50.895Z,99796.27
2018-09-06T09:31:19.638Z,99802.03
2018-09-06T09:33:48.343Z,99796.41
2018-09-06T09:36:16.891Z,99796.77
2018-09-06T09:38:45.572Z,99796.59
2018-09-06T09:41:14.498Z,99796.17
2018-09-06T09:43:42.999Z,99788.42
2018-09-06T09:48:39.182Z,99786.66
2018-09-06T09:51:07.656Z,99794.36
2018-09-06T09:53:36.159Z,99791.11
2018-09-06T09:56:04.717Z,99788.08
2018-09-06T09:58:33.230Z,99781.09
2018-09-06T10:01:01.735Z,99782.77
2018-09-06T10:03:35.706Z,99782.83
2018-09-06T10:06:09.759Z,99783.73
2018-09-06T10:08:43.398Z,99780.98
2018-09-06T10:11:12.218Z,99781.59
2018-09-06T10:13:40.796Z,99781.05
2018-09-06T10:16:09.379Z,99778.03
2018-09-06T10:18:37.994Z,99777.54
2018-09-06T10:21:06.902Z,99767.91
2018-09-06T10:23:35.561Z,99768.91
2018-09-06T10:26:04.066Z,99764.72
2018-09-06T10:28:32.721Z,99767.81
2018-09-06T10:31:01.579Z,99760.84
2018-09-06T10:33:31.340Z,99757.62
2018-09-06T10:35:59.831Z,99755.44
2018-09-06T10:38:28.362Z,99753.69
2018-09-06T10:40:56.883Z,99751.97
2018-09-06T10:43:25.463Z,99748.41
2018-09-06T10:45:53.943Z,99750.95
2018-09-06T10:48:22.722Z,99752.20
2018-09-06T10:50:51.231Z,99750.12
2018-09-06T10:53:19.755Z,99744.15
2018-09-06T10:55:48.307Z,99748.84
2018-09-06T10:58:16.836Z,99748.31
2018-09-06T11:00:45.328Z,99745.80
2018-09-06T11:03:13.935Z,99747.11
2018-09-06T11:05:42.382Z,99739.84
2018-09-06T11:08:10.982Z,99733.66
2018-09-06T11:10:39.664Z,99732.73
2018-09-06T11:13:08.230Z,99730.86
2018-09-06T11:15:36.940Z,99726.66
2018-09-06T11:18:05.445Z,99719.51
2018-09-06T11:20:33.995Z,99713.23
2018-09-06T11:23:02.463Z,99710.77
2018-09-06T11:25:30.979Z,99702.77
2018-09-06T11:27:59.593Z,99691.25
2018-09-06T11:30:28.083Z,99701.74
2018-09-06T11:32:56.938Z,99699.77
2018-09-06T11:35:25.477Z,99691.91
2018-09-06T11:37:53.934Z,99700.12
2018-09-06T11:40:22.689Z,99685.82
2018-09-06T11:42:51.160Z,99691.45
2018-09-06T11:45:19.612Z,99693.97
2018-09-06T11:47:48.438Z,99696.56
2018-09-06T11:50:16.868Z,99690.72
2018-09-06T11:52:45.347Z,99693.55
2018-09-06T11:55:14.087Z,99698.31
2018-09-06T11:57:42.572Z,99690.14
2018-09-06T12:00:11.132Z,99683.46
2018-09-06T12:02:39.787Z,99675.45
2018-09-06T12:05:08.337Z,99674.87
2018-09-06T12:07:36.916Z,99669.66
2018-09-06T12:10:05.763Z,99660.92
2018-09-06T12:12:34.229Z,99655.04
2018-09-06T12:15:02.638Z,99650.58
2018-09-06T12:17:31.100Z,99649.66
2018-09-06T12:19:59.893Z,99652.59
2018-09-06T12:22:28.628Z,99653.39
2018-09-06T12:24:57.504Z,99650.64
2018-09-06T12:27:25.998Z,99643.18
2018-09-06T12:29:54.592Z,99633.11
2018-09-06T12:32:23.453Z,99637.94
2018-09-06T12:34:52.107Z,99641.30
2018-09-06T12:37:20.589Z,99645.61
2018-09-06T12:39:49.238Z,99649.11
2018-09-06T12:42:17.750Z,99651.49
2018-09-06T12:44:46.307Z,99659.66
2018-09-06T12:47:14.928Z,99670.45
2018-09-06T12:49:43.450Z,99703.95
2018-09-06T12:52:11.859Z,99729.58
2018-09-06T12:54:40.359Z,99751.39
2018-09-06T12:57:08.912Z,99758.92
2018-09-06T12:59:37.474Z,99760.92
2018-09-06T13:02:06.249Z,99765.55
2018-09-06T13:04:34.737Z,99772.59
2018-09-06T13:07:03.206Z,99785.58
2018-09-06T13:09:31.810Z,99764.14
2018-09-06T13:12:00.300Z,99718.00
2018-09-06T13:14:29.052Z,99706.74
2018-09-06T13:16:58.160Z,99694.48
2018-09-06T13:19:26.743Z,99684.80
2018-09-06T13:21:55.212Z,99676.28
2018-09-06T13:24:23.787Z,99669.88
2018-09-06T13:26:52.392Z,99671.45
2018-09-06T13:29:20.883Z,99683.45
2018-09-06T13:31:49.547Z,99683.61
2018-09-06T13:34:18.178Z,99690.72
2018-09-06T13:36:46.699Z,99697.22
2018-09-06T13:39:15.702Z,99705.66
2018-09-06T13:41:44.183Z,99706.63
2018-09-06T13:44:12.759Z,99714.23
2018-09-06T13:46:41.648Z,99724.05
2018-09-06T13:49:10.155Z,99728.24
2018-09-06T13:51:38.662Z,99721.99
2018-09-06T13:54:07.321Z,99719.52
2018-09-06T13:56:35.959Z,99718.16
2018-09-06T13:59:04.479Z,99706.00
2018-09-06T14:01:33.539Z,99704.94
2018-09-06T14:04:02.179Z,99687.84
2018-09-06T14:06:30.742Z,99681.70
2018-09-06T14:08:59.632Z,99685.70
2018-09-06T14:11:28.135Z,99692.28
2018-09-06T14:13:56.566Z,99686.05
2018-09-06T14:16:25.296Z,99684.97
2018-09-06T14:18:53.799Z,99681.69
2018-09-06T14:21:22.831Z,99673.58
2018-09-06T14:23:51.667Z,99663.75
2018-09-06T14:26:20.246Z,99666.53
2018-09-06T14:28:48.787Z,99670.13
2018-09-06T14:31:17.396Z,99669.27
2018-09-06T14:33:45.950Z,99671.92
2018-09-06T14:36:14.570Z,99666.23
2018-09-06T14:38:43.239Z,99666.76
2018-09-06T14:41:11.703Z,99662.04
2018-09-06T14:43:40.247Z,99663.20
2018-09-06T14:46:08.879Z,99661.71
2018-09-06T14:48:37.372Z,99652.17
2018-09-06T14:51:05.823Z,99644.55
2018-09-06T14:53:34.351Z,99644.73
2018-09-06T14:56:02.887Z,99642.37
2018-09-06T14:58:31.397Z,99643.64
2018-09-06T15:00:59.871Z,99642.34
2018-09-06T15:03:28.479Z,99641.84
2018-09-06T15:05:57.004Z,99642.61
2018-09-06T15:08:25.732Z,99639.67
2018-09-06T15:10:54.311Z,99640.63
2018-09-06T15:13:22.833Z,99634.72
2018-09-06T15:15:51.728Z,99634.17
2018-09-06T15:18:20.153Z,99636.11
2018-09-06T15:20:48.681Z,99626.20
2018-09-06T15:23:17.523Z,99620.74
2018-09-06T15:25:46.033Z,99615.56
2018-09-06T15:28:14.579Z,99610.47
2018-09-06T15:30:43.058Z,99609.25
2018-09-06T15:33:11.495Z,99615.91
2018-09-06T15:35:40.027Z,99615.42
2018-09-06T15:38:08.675Z,99616.69
2018-09-06T15:40:37.091Z,99619.52
2018-09-06T15:43:05.595Z,99610.91
2018-09-06T15:45:34.116Z,99614.47
2018-09-06T15:48:02.563Z,99609.92
2018-09-06T15:50:31.108Z,99610.36
2018-09-06T15:52:59.699Z,99612.71
2018-09-06T15:55:28.208Z,99616.42
2018-09-06T15:57:56.805Z,99611.16
2018-09-06T16:00:25.291Z,99614.01
2018-09-06T16:02:53.715Z,99616.20
2018-09-06T16:05:22.131Z,99621.45
2018-09-06T16:07:51.480Z,99630.09
2018-09-06T16:10:20.053Z,99632.01
2018-09-06T16:12:48.614Z,99624.02
2018-09-06T16:15:17.451Z,99625.83
2018-09-06T16:17:45.939Z,99623.61
2018-09-06T16:20:14.480Z,99621.21
2018-09-06T16:22:43.475Z,99627.70
2018-09-06T16:25:11.991Z,99628.11
2018-09-06T16:27:40.487Z,99630.88
2018-09-06T16:30:09.196Z,99636.52
2018-09-06T16:32:37.773Z,99639.42
2018-09-06T16:35:06.252Z,99644.26
2018-09-06T16:37:34.773Z,99650.22
2018-09-06T16:40:04.197Z,99653.90
2018-09-06T16:42:32.983Z,99655.58
2018-09-06T16:45:01.468Z,99651.86
2018-09-06T16:47:29.970Z,99656.86
2018-09-06T16:49:58.529Z,99650.45
2018-09-06T16:52:27.231Z,99655.78
2018-09-06T16:54:55.763Z,99655.16
2018-09-06T16:57:24.479Z,99659.84
2018-09-06T16:59:53.232Z,99664.66
2018-09-06T17:02:21.690Z,99659.39
2018-09-06T17:04:50.327Z,99660.56
2018-09-06T17:07:18.882Z,99661.95
2018-09-06T17:09:47.840Z,99669.23
2018-09-06T17:12:16.410Z,99665.11
2018-09-06T17:14:45.235Z,99664.12
2018-09-06T17:17:14.067Z,99662.59
2018-09-06T17:19:42.683Z,99666.29
2018-09-06T17:22:11.233Z,99667.91
2018-09-06T17:24:39.868Z,99673.87
2018-09-06T17:27:09.130Z,99677.05
2018-09-06T17:29:37.706Z,99677.70
2018-09-06T17:32:06.563Z,99678.44
2018-09-06T17:34:34.939Z,99681.50
2018-09-06T17:37:03.774Z,99673.78
2018-09-06T17:39:32.370Z,99686.45
2018-09-06T17:42:00.882Z,99677.47
2018-09-06T17:44:29.655Z,99681.16
2018-09-06T17:46:58.279Z,99677.73
2018-09-06T17:49:26.825Z,99681.55
2018-09-06T17:51:55.551Z,99681.06
2018-09-06T17:54:24.086Z,99679.38
2018-09-06T17:56:52.575Z,99678.64
2018-09-06T17:59:21.081Z,99675.20
2018-09-06T18:01:49.599Z,99670.03
2018-09-06T18:04:18.184Z,99668.22
2018-09-06T18:06:46.920Z,99674.10
2018-09-06T18:09:15.506Z,99677.30
2018-09-06T18:11:44.531Z,99680.59
2018-09-06T18:14:13.228Z,99678.53
2018-09-06T18:16:41.816Z,99677.30
2018-09-06T18:19:11.449Z,99681.95
2018-09-06T18:21:40.308Z,99688.72
2018-09-06T18:24:08.801Z,99694.47
2018-09-06T18:26:37.523Z,99701.09
2018-09-06T18:29:06.147Z,99700.02
2018-09-06T18:31:34.931Z,99698.03
2018-09-06T18:34:03.564Z,99700.73
2018-09-06T18:36:32.182Z,99713.98
2018-09-06T18:39:00.844Z,99724.69
2018-09-06T18:41:29.440Z,99726.14
2018-09-06T18:43:58.514Z,99730.96
2018-09-06T18:46:27.019Z,99739.14
2018-09-06T18:48:56.192Z,99742.89
2018-09-06T18:51:24.697Z,99755.01
2018-09-06T18:53:53.302Z,99751.36
2018-09-06T18:56:21.749Z,99757.69
2018-09-06T18:58:50.591Z,99755.66
2018-09-06T19:01:23.272Z,99761.42
2018-09-06T19:03:52.138Z,99757.20
2018-09-06T19:06:20.611Z,99767.75
2018-09-06T19:08:49.303Z,99754.19
2018-09-06T19:11:17.989Z,99757.98
2018-09-06T19:13:46.559Z,99752.59
2018-09-06T19:16:15.071Z,99755.13
2018-09-06T19:18:43.808Z,99758.56
2018-09-06T19:21:12.511Z,99760.61
2018-09-06T19:23:41.051Z,99762.13
2018-09-06T19:26:09.907Z,99759.42
2018-09-06T19:28:38.447Z,99761.33
2018-09-06T19:31:06.936Z,99764.48
2018-09-06T19:33:35.813Z,99765.45
2018-09-06T19:36:04.834Z,99755.27
2018-09-06T19:38:33.456Z,99758.95
2018-09-06T19:41:02.137Z,99760.25
2018-09-06T19:43:30.714Z,99759.25
2018-09-06T19:45:59.207Z,99756.86
2018-09-06T19:48:27.772Z,99765.37
2018-09-06T19:50:56.268Z,99762.73
2018-09-06T19:53:24.819Z,99757.36
2018-09-06T19:55:53.922Z,99757.95
2018-09-06T19:58:22.387Z,99758.20
2018-09-06T20:00:51.215Z,99752.81
2018-09-06T20:03:19.771Z,99758.95
2018-09-06T20:05:48.320Z,99756.31
2018-09-06T20:08:16.788Z,99758.77
2018-09-06T20:10:45.311Z,99761.08
2018-09-06T20:13:13.854Z,99763.58
2018-09-06T20:15:42.391Z,99765.47
2018-09-06T20:18:11.150Z,99767.07
2018-09-06T20:20:39.659Z,99765.53
2018-09-06T20:23:08.175Z,99767.88
2018-09-06T20:25:37.306Z,99774.23
2018-09-06T20:28:06.259Z,99774.79
2018-09-06T20:30:34.695Z,99774.23
2018-09-06T20:33:03.631Z,99780.23
2018-09-06T20:35:32.422Z,99778.25
2018-09-06T20:38:01.791Z,99781.21
2018-09-06T20:40:30.447Z,99784.83
2018-09-06T20:42:59.009Z,99785.31
2018-09-06T20:45:27.523Z,99793.51
2018-09-06T20:47:56.073Z,99789.22
2018-09-06T20:50:24.551Z,99789.00
2018-09-06T20:52:53.046Z,99790.61
2018-09-06T20:55:21.714Z,99799.75
2018-09-06T20:57:50.146Z,99799.38
2018-09-06T21:00:18.622Z,99797.67
2018-09-06T21:02:47.180Z,99797.56
2018-09-06T21:05:15.940Z,99807.13
2018-09-06T21:07:44.555Z,99804.95
2018-09-06T21:10:13.087Z,99801.99
2018-09-06T21:12:41.528Z,99796.15
2018-09-06T21:15:10.112Z,99795.40
2018-09-06T21:17:38.607Z,99797.03
2018-09-06T21:20:07.370Z,99804.52
2018-09-06T21:22:35.911Z,99805.09
2018-09-06T21:25:04.414Z,99807.45
2018-09-06T21:27:32.911Z,99804.18
2018-09-06T21:30:01.398Z,99811.13
2018-09-06T21:32:29.882Z,99813.91
2018-09-06T21:34:58.346Z,99814.06
2018-09-06T21:37:26.855Z,99816.28
2018-09-06T21:39:55.443Z,99812.05
2018-09-06T21:42:23.974Z,99814.62
2018-09-06T21:44:52.444Z,99815.11
2018-09-06T21:47:21.055Z,99810.95
2018-09-06T21:49:49.558Z,99812.95
2018-09-06T21:52:18.055Z,99819.16
2018-09-06T21:54:46.638Z,99811.11
2018-09-06T21:57:15.227Z,99815.41
2018-09-06T21:59:43.722Z,99811.48
2018-09-06T22:03:17.527Z,99812.94
2018-09-06T22:05:46.076Z,99817.73
2018-09-06T22:08:14.559Z,99821.36
2018-09-06T22:10:43.102Z,99821.52
2018-09-06T22:13:11.649Z,99822.16
2018-09-06T22:15:40.144Z,99825.22
2018-09-06T22:18:08.991Z,99818.22
2018-09-06T22:20:37.418Z,99811.71
2018-09-06T22:23:06.230Z,99808.33
2018-09-06T22:25:34.883Z,99814.25
2018-09-06T22:28:03.291Z,99808.56
2018-09-06T22:30:31.800Z,99806.91
2018-09-06T22:33:00.630Z,99806.96
2018-09-06T22:35:29.083Z,99803.36
2018-09-06T22:37:57.714Z,99805.17
2018-09-06T22:40:26.307Z,99806.95
2018-09-06T22:42:54.742Z,99814.41
2018-09-06T22:45:23.411Z,99810.45
2018-09-06T22:47:52.043Z,99810.14
2018-09-06T22:50:20.519Z,99803.00
2018-09-06T22:52:48.999Z,99804.11
2018-09-06T22:55:17.728Z,99803.67
2018-09-06T22:57:46.167Z,99800.98
2018-09-06T23:00:15.742Z,99799.48
2018-09-06T23:02:49.585Z,99801.16
2018-09-06T23:05:18.118Z,99804.64
2018-09-06T23:07:46.531Z,99804.27
2018-09-06T23:10:15.201Z,99801.45
2018-09-06T23:12:43.706Z,99805.69
2018-09-06T23:15:12.170Z,99807.69
2018-09-06T23:17:40.714Z,99802.93
2018-09-06T23:20:09.175Z,99805.20
2018-09-06T23:22:38.813Z,99805.98
2018-09-06T23:25:08.751Z,99808.42
2018-09-06T23:27:37.227Z,99804.86
2018-09-06T23:30:06.342Z,99812.08
2018-09-06T23:32:35.187Z,99811.00
2018-09-06T23:35:03.679Z,99813.98
2018-09-06T23:37:32.242Z,99813.91
2018-09-06T23:40:00.782Z,99809.06
2018-09-06T23:42:29.255Z,99814.20
2018-09-06T23:44:57.694Z,99819.08
2018-09-06T23:47:26.400Z,99820.86
2018-09-06T23:49:54.856Z,99830.38
2018-09-06T23:52:23.259Z,99828.18
2018-09-06T23:54:51.813Z,99830.29
2018-09-06T23:57:20.247Z,99827.53
2018-09-06T23:59:48.777Z,99826.22
